createdAt,value
2022-07-29T00:04:02.160Z,16.80
2022-07-29T00:09:05.113Z,16.80
2022-07-29T00:14:07.963Z,16.60
2022-07-29T00:19:10.706Z,16.60
2022-07-29T00:24:13.993Z,16.60
2022-07-29T00:29:33.694Z,16.70
2022-07-29T00:34:55.676Z,16.70
2022-07-29T00:39:58.371Z,16.80
2022-07-29T00:45:01.316Z,16.80
2022-07-29T00:50:06.705Z,16.70
2022-07-29T00:55:12.706Z,16.70
2022-07-29T01:00:19.784Z,16.60
2022-07-29T01:05:24.656Z,16.50
2022-07-29T01:10:28.326Z,16.40
2022-07-29T01:15:31.186Z,16.30
2022-07-29T01:20:52.256Z,16.20
2022-07-29T01:26:32.958Z,16.10
2022-07-29T01:32:05.716Z,16.00
2022-07-29T01:37:14.729Z,16.00
2022-07-29T01:42:29.346Z,16.00
2022-07-29T01:47:44.635Z,15.90
2022-07-29T01:53:02.195Z,16.00
2022-07-29T01:58:06.726Z,15.90
2022-07-29T02:03:12.634Z,15.80
2022-07-29T02:08:17.859Z,15.70
2022-07-29T02:13:24.899Z,15.50
2022-07-29T02:18:31.984Z,15.50
2022-07-29T02:23:50.027Z,15.30
2022-07-29T02:28:57.663Z,15.30
2022-07-29T02:34:01.963Z,15.20
2022-07-29T02:39:05.273Z,15.10
2022-07-29T02:44:13.738Z,14.90
2022-07-29T02:49:22.919Z,15.00
2022-07-29T02:54:43.786Z,15.00
2022-07-29T02:59:49.247Z,14.90
2022-07-29T03:04:53.483Z,14.80
2022-07-29T03:09:57.046Z,14.80
2022-07-29T03:15:00.706Z,14.80
2022-07-29T03:20:04.487Z,14.80
2022-07-29T03:25:17.509Z,14.70
2022-07-29T03:30:22.232Z,14.60
2022-07-29T03:35:25.960Z,14.60
2022-07-29T03:40:49.954Z,14.60
2022-07-29T03:45:56.436Z,14.70
2022-07-29T03:50:59.345Z,14.70
2022-07-29T03:56:03.564Z,14.80
2022-07-29T04:01:07.034Z,14.80
2022-07-29T04:06:11.622Z,14.70
2022-07-29T04:11:14.915Z,14.80
2022-07-29T04:16:18.048Z,14.90
2022-07-29T04:21:20.957Z,15.00
2022-07-29T04:26:23.804Z,15.10
2022-07-29T04:31:26.711Z,15.20
2022-07-29T04:36:30.174Z,15.20
2022-07-29T04:41:33.817Z,15.50
2022-07-29T04:46:37.606Z,15.60
2022-07-29T04:51:40.540Z,15.80
2022-07-29T04:56:43.418Z,15.90
2022-07-29T05:01:46.314Z,16.10
2022-07-29T05:06:49.935Z,16.40
2022-07-29T05:11:52.854Z,16.70
2022-07-29T05:16:57.960Z,17.10
2022-07-29T05:22:01.312Z,17.10
2022-07-29T05:27:04.141Z,17.20
2022-07-29T05:32:08.511Z,17.40
2022-07-29T05:37:11.591Z,17.60
2022-07-29T05:42:14.706Z,17.60
2022-07-29T05:47:18.072Z,18.10
2022-07-29T05:52:21.158Z,18.40
2022-07-29T05:57:25.372Z,18.80
2022-07-29T06:02:28.350Z,18.80
2022-07-29T06:07:31.948Z,19.00
2022-07-29T06:12:36.931Z,19.10
2022-07-29T06:17:39.902Z,19.30
2022-07-29T06:23:05.753Z,19.70
2022-07-29T06:28:08.555Z,20.00
2022-07-29T06:33:17.204Z,20.20
2022-07-29T06:38:30.780Z,20.20
2022-07-29T06:43:50.315Z,20.50
2022-07-29T06:48:56.055Z,20.90
2022-07-29T06:54:02.508Z,21.20
2022-07-29T06:59:16.183Z,21.00
2022-07-29T07:04:19.340Z,21.30
2022-07-29T07:09:22.863Z,21.60
2022-07-29T07:14:27.936Z,21.80
2022-07-29T07:19:31.240Z,22.00
2022-07-29T07:24:34.134Z,22.10
2022-07-29T07:29:37.825Z,22.20
2022-07-29T07:34:40.773Z,22.20
2022-07-29T07:39:43.723Z,22.50
2022-07-29T07:45:12.099Z,22.60
2022-07-29T07:50:18.053Z,23.00
2022-07-29T07:55:22.022Z,23.00
2022-07-29T08:00:24.904Z,23.00
2022-07-29T08:05:27.696Z,22.60
2022-07-29T08:10:48.894Z,23.20
2022-07-29T08:16:12.787Z,23.10
2022-07-29T08:21:16.906Z,23.50
2022-07-29T08:26:21.065Z,24.20
2022-07-29T08:31:23.932Z,24.50
2022-07-29T08:36:27.415Z,25.20
2022-07-29T08:41:30.239Z,25.40
2022-07-29T08:46:33.223Z,25.70
2022-07-29T08:51:49.253Z,25.40
2022-07-29T08:56:54.842Z,26.00
2022-07-29T09:02:01.505Z,26.30
2022-07-29T09:07:07.194Z,26.80
2022-07-29T09:12:12.806Z,27.10
2022-07-29T09:17:50.375Z,27.10
2022-07-29T09:22:57.238Z,27.30
2022-07-29T09:28:11.606Z,27.60
2022-07-29T09:33:14.480Z,28.10
2022-07-29T09:38:17.449Z,28.40
2022-07-29T09:43:20.285Z,28.40
2022-07-29T09:48:25.065Z,28.60
2022-07-29T09:53:38.693Z,28.70
2022-07-29T09:58:41.680Z,28.50
2022-07-29T10:03:54.453Z,29.40
2022-07-29T10:09:12.303Z,28.40
2022-07-29T10:14:16.679Z,28.50
2022-07-29T10:19:19.599Z,29.90
2022-07-29T10:24:22.824Z,29.10
2022-07-29T10:29:26.605Z,29.90
2022-07-29T10:34:50.704Z,29.80
2022-07-29T10:40:30.807Z,29.10
2022-07-29T10:45:34.830Z,29.30
2022-07-29T10:50:56.606Z,29.50
2022-07-29T10:55:59.461Z,28.60
2022-07-29T11:01:37.010Z,28.40
2022-07-29T11:07:04.172Z,28.80
2022-07-29T11:12:39.443Z,29.20
2022-07-29T11:18:02.174Z,28.40
2022-07-29T11:23:33.925Z,29.30
2022-07-29T11:28:50.516Z,29.70
2022-07-29T11:33:56.021Z,29.90
2022-07-29T11:39:36.863Z,30.50
2022-07-29T11:44:57.565Z,30.90
2022-07-29T11:50:02.413Z,30.90
2022-07-29T11:55:09.699Z,31.30
2022-07-29T12:00:18.727Z,32.00
2022-07-29T12:05:36.384Z,31.30
2022-07-29T12:10:40.859Z,31.80
2022-07-29T12:15:59.853Z,31.70
2022-07-29T12:21:05.141Z,32.10
2022-07-29T12:26:10.848Z,31.30
2022-07-29T12:31:41.887Z,32.10
2022-07-29T12:36:42.054Z,31.90
2022-07-29T12:41:45.567Z,31.70
2022-07-29T12:47:03.500Z,33.10
2022-07-29T12:52:25.701Z,31.30
2022-07-29T12:57:29.473Z,31.30
2022-07-29T13:02:32.579Z,30.40
2022-07-29T13:07:55.866Z,30.40
2022-07-29T13:13:15.134Z,29.70
2022-07-29T13:18:36.608Z,30.10
2022-07-29T13:23:40.021Z,29.60
2022-07-29T13:28:44.192Z,29.70
2022-07-29T13:33:47.485Z,30.40
2022-07-29T13:38:50.281Z,31.40
2022-07-29T13:43:52.988Z,31.00
2022-07-29T13:48:55.830Z,31.20
2022-07-29T13:53:59.177Z,32.00
2022-07-29T13:59:01.907Z,30.90
2022-07-29T14:04:04.873Z,30.40
2022-07-29T14:09:07.600Z,30.10
2022-07-29T14:14:12.038Z,29.60
2022-07-29T14:19:15.052Z,29.70
2022-07-29T14:24:23.062Z,29.80
2022-07-29T14:29:37.473Z,30.80
2022-07-29T14:34:41.321Z,29.70
2022-07-29T14:39:44.170Z,28.50
2022-07-29T14:44:47.036Z,27.70
2022-07-29T14:49:49.760Z,27.10
2022-07-29T14:54:52.531Z,27.00
2022-07-29T14:59:55.401Z,26.90
2022-07-29T15:04:58.138Z,26.60
2022-07-29T15:10:00.901Z,26.40
2022-07-29T15:15:04.736Z,26.50
2022-07-29T15:20:08.279Z,26.40
2022-07-29T15:25:11.370Z,26.30
2022-07-29T15:30:32.622Z,26.30
2022-07-29T15:35:40.002Z,26.10
2022-07-29T15:40:44.769Z,25.70
2022-07-29T15:46:05.968Z,25.70
2022-07-29T15:51:09.067Z,25.40
2022-07-29T15:56:13.205Z,24.90
2022-07-29T16:01:16.157Z,24.30
2022-07-29T16:06:19.615Z,23.90
2022-07-29T16:11:22.555Z,23.30
2022-07-29T16:16:25.458Z,23.00
2022-07-29T16:21:28.326Z,22.80
2022-07-29T16:26:31.195Z,22.00
2022-07-29T16:31:34.190Z,21.80
2022-07-29T16:36:37.107Z,21.30
2022-07-29T16:41:40.038Z,21.10
2022-07-29T16:46:45.500Z,20.90
2022-07-29T16:51:48.357Z,20.60
2022-07-29T16:56:51.396Z,20.50
2022-07-29T17:01:54.184Z,20.30
2022-07-29T17:06:57.532Z,20.20
2022-07-29T17:12:00.525Z,20.10
2022-07-29T17:17:04.648Z,19.80
2022-07-29T17:22:19.385Z,19.70
2022-07-29T17:27:22.538Z,19.70
2022-07-29T17:32:25.586Z,19.70
2022-07-29T17:37:29.170Z,19.60
2022-07-29T17:42:32.002Z,19.60
2022-07-29T17:47:34.826Z,19.70
2022-07-29T17:52:39.379Z,19.60
2022-07-29T17:57:42.486Z,19.50
2022-07-29T18:02:45.302Z,19.40
2022-07-29T18:07:48.232Z,19.50
2022-07-29T18:12:51.229Z,19.40
2022-07-29T18:17:57.598Z,19.30
2022-07-29T18:23:01.883Z,19.10
2022-07-29T18:28:05.683Z,18.90
2022-07-29T18:33:28.297Z,18.70
2022-07-29T18:38:31.169Z,18.60
2022-07-29T18:43:34.004Z,18.50
2022-07-29T18:48:36.859Z,18.50
2022-07-29T18:53:39.702Z,18.50
2022-07-29T18:58:42.664Z,18.50
2022-07-29T19:03:45.420Z,18.60
2022-07-29T19:08:48.244Z,18.70
2022-07-29T19:13:51.130Z,18.60
2022-07-29T19:18:53.815Z,18.50
2022-07-29T19:24:01.807Z,18.50
2022-07-29T19:29:09.439Z,18.60
2022-07-29T19:34:12.297Z,18.50
2022-07-29T19:39:15.726Z,18.40
2022-07-29T19:44:18.905Z,18.30
2022-07-29T19:49:21.981Z,18.30
2022-07-29T19:54:25.285Z,18.50
2022-07-29T19:59:29.489Z,18.60
2022-07-29T20:04:32.425Z,18.50
2022-07-29T20:09:37.155Z,18.40
2022-07-29T20:14:40.404Z,18.30
2022-07-29T20:19:43.910Z,18.40
2022-07-29T20:24:47.067Z,18.40
2022-07-29T20:29:50.318Z,18.40
2022-07-29T20:34:53.406Z,18.30
2022-07-29T20:39:56.226Z,18.20
2022-07-29T20:44:59.106Z,18.10
2022-07-29T20:50:01.898Z,18.10
2022-07-29T20:55:05.195Z,18.00
2022-07-29T21:00:09.420Z,18.10
2022-07-29T21:05:12.309Z,18.10
2022-07-29T21:10:15.651Z,18.00
2022-07-29T21:15:21.035Z,18.10
2022-07-29T21:20:24.328Z,18.10
2022-07-29T21:25:27.297Z,18.10
2022-07-29T21:30:30.269Z,18.10
2022-07-29T21:36:10.267Z,18.10
2022-07-29T21:40:56.826Z,18.00
2022-07-29T21:46:00.810Z,18.00
2022-07-29T21:51:04.045Z,18.00
2022-07-29T21:56:07.594Z,17.90
2022-07-29T22:01:15.612Z,17.80
2022-07-29T22:06:18.678Z,17.90
2022-07-29T22:11:21.657Z,17.90
2022-07-29T22:16:24.705Z,17.80
2022-07-29T22:21:27.964Z,17.80
2022-07-29T22:26:31.598Z,17.80
2022-07-29T22:31:34.614Z,18.00
2022-07-29T22:36:37.617Z,18.00
2022-07-29T22:41:40.961Z,18.10
2022-07-29T22:46:47.174Z,18.00
2022-07-29T22:51:50.126Z,18.00
2022-07-29T22:56:53.237Z,17.90
2022-07-29T23:01:56.616Z,17.80
2022-07-29T23:06:59.593Z,17.80
2022-07-29T23:12:02.544Z,17.80
2022-07-29T23:17:05.676Z,17.70
2022-07-29T23:22:08.507Z,17.60
2022-07-29T23:27:11.166Z,17.60
2022-07-29T23:32:13.885Z,17.40
2022-07-29T23:37:16.704Z,17.40
2022-07-29T23:42:19.654Z,17.40
2022-07-29T23:47:24.556Z,17.40
2022-07-29T23:52:28.293Z,17.30
2022-07-29T23:57:31.995Z,17.30
